sensor_id;sensor_type;location;lat;lon;timestamp;temperature;humidity
47382;DHT22;33128;51.580;5.170;2022-11-15T00:00:26;8.60;99.90
47382;DHT22;33128;51.580;5.170;2022-11-15T00:02:52;8.60;99.90
47382;DHT22;33128;51.580;5.170;2022-11-15T00:05:18;8.70;99.90
47382;DHT22;33128;51.580;5.170;2022-11-15T00:07:44;8.70;99.90
47382;DHT22;33128;51.580;5.170;2022-11-15T00:10:09;8.80;99.90
47382;DHT22;33128;51.580;5.170;2022-11-15T00:12:35;8.80;99.90
47382;DHT22;33128;51.580;5.170;2022-11-15T00:15:00;8.80;99.90
47382;DHT22;33128;51.580;5.170;2022-11-15T00:17:26;8.80;99.90
47382;DHT22;33128;51.580;5.170;2022-11-15T00:19:51;8.80;99.90
47382;DHT22;33128;51.580;5.170;2022-11-15T00:22:17;8.80;99.90
47382;DHT22;33128;51.580;5.170;2022-11-15T00:24:43;8.80;99.90
47382;DHT22;33128;51.580;5.170;2022-11-15T00:27:08;8.90;99.90
47382;DHT22;33128;51.580;5.170;2022-11-15T00:29:34;8.90;99.90
47382;DHT22;33128;51.580;5.170;2022-11-15T00:31:59;9.00;99.90
47382;DHT22;33128;51.580;5.170;2022-11-15T00:34:25;9.00;99.90
47382;DHT22;33128;51.580;5.170;2022-11-15T00:36:51;9.00;99.90
47382;DHT22;33128;51.580;5.170;2022-11-15T00:39:16;9.00;99.90
47382;DHT22;33128;51.580;5.170;2022-11-15T00:41:42;9.00;99.90
47382;DHT22;33128;51.580;5.170;2022-11-15T00:44:07;9.00;99.90
47382;DHT22;33128;51.580;5.170;2022-11-15T00:46:33;9.00;99.90
47382;DHT22;33128;51.580;5.170;2022-11-15T00:48:59;9.10;99.90
47382;DHT22;33128;51.580;5.170;2022-11-15T00:51:24;9.20;99.90
47382;DHT22;33128;51.580;5.170;2022-11-15T00:53:50;9.20;99.90
47382;DHT22;33128;51.580;5.170;2022-11-15T00:56:15;9.20;99.90
47382;DHT22;33128;51.580;5.170;2022-11-15T00:58:41;9.30;99.90
47382;DHT22;33128;51.580;5.170;2022-11-15T01:01:12;9.30;99.90
47382;DHT22;33128;51.580;5.170;2022-11-15T01:03:39;9.40;99.90
47382;DHT22;33128;51.580;5.170;2022-11-15T01:06:05;9.40;99.90
47382;DHT22;33128;51.580;5.170;2022-11-15T01:08:34;9.40;99.90
47382;DHT22;33128;51.580;5.170;2022-11-15T01:11:11;9.40;99.90
47382;DHT22;33128;51.580;5.170;2022-11-15T01:13:38;9.50;99.90
47382;DHT22;33128;51.580;5.170;2022-11-15T01:16:09;9.50;99.90
47382;DHT22;33128;51.580;5.170;2022-11-15T01:18:35;9.50;99.90
47382;DHT22;33128;51.580;5.170;2022-11-15T01:21:05;9.50;99.90
47382;DHT22;33128;51.580;5.170;2022-11-15T01:23:31;9.50;99.90
47382;DHT22;33128;51.580;5.170;2022-11-15T01:26:00;9.60;99.90
47382;DHT22;33128;51.580;5.170;2022-11-15T01:28:33;9.60;99.90
47382;DHT22;33128;51.580;5.170;2022-11-15T01:31:00;9.60;99.90
47382;DHT22;33128;51.580;5.170;2022-11-15T01:33:26;9.70;99.90
47382;DHT22;33128;51.580;5.170;2022-11-15T01:35:52;9.70;99.90
47382;DHT22;33128;51.580;5.170;2022-11-15T01:38:17;9.70;99.90
47382;DHT22;33128;51.580;5.170;2022-11-15T01:40:43;9.70;99.90
47382;DHT22;33128;51.580;5.170;2022-11-15T01:43:27;9.70;99.90
47382;DHT22;33128;51.580;5.170;2022-11-15T01:46:06;9.80;99.90
47382;DHT22;33128;51.580;5.170;2022-11-15T01:48:36;9.80;99.90
47382;DHT22;33128;51.580;5.170;2022-11-15T01:51:06;9.80;99.90
47382;DHT22;33128;51.580;5.170;2022-11-15T01:53:33;9.80;99.90
47382;DHT22;33128;51.580;5.170;2022-11-15T01:56:05;9.90;99.90
47382;DHT22;33128;51.580;5.170;2022-11-15T01:58:32;10.00;99.90
47382;DHT22;33128;51.580;5.170;2022-11-15T02:00:58;10.10;99.90
47382;DHT22;33128;51.580;5.170;2022-11-15T02:03:30;10.10;99.90
47382;DHT22;33128;51.580;5.170;2022-11-15T02:05:58;10.10;99.90
47382;DHT22;33128;51.580;5.170;2022-11-15T02:08:24;10.20;99.90
47382;DHT22;33128;51.580;5.170;2022-11-15T02:10:50;10.30;99.90
47382;DHT22;33128;51.580;5.170;2022-11-15T02:13:16;10.40;99.90
47382;DHT22;33128;51.580;5.170;2022-11-15T02:16:45;10.40;99.90
47382;DHT22;33128;51.580;5.170;2022-11-15T02:18:50;10.50;99.90
47382;DHT22;33128;51.580;5.170;2022-11-15T02:27:26;10.60;99.90
47382;DHT22;33128;51.580;5.170;2022-11-15T02:32:50;10.70;99.90
47382;DHT22;33128;51.580;5.170;2022-11-15T02:38:25;10.80;99.90
47382;DHT22;33128;51.580;5.170;2022-11-15T02:41:02;10.90;99.90
47382;DHT22;33128;51.580;5.170;2022-11-15T02:43:43;10.90;99.90
47382;DHT22;33128;51.580;5.170;2022-11-15T02:46:31;11.00;99.90
47382;DHT22;33128;51.580;5.170;2022-11-15T02:49:16;11.00;99.90
47382;DHT22;33128;51.580;5.170;2022-11-15T02:51:43;11.10;99.90
47382;DHT22;33128;51.580;5.170;2022-11-15T02:54:17;11.10;99.90
47382;DHT22;33128;51.580;5.170;2022-11-15T02:56:45;11.10;99.90
47382;DHT22;33128;51.580;5.170;2022-11-15T02:59:20;11.20;99.90
47382;DHT22;33128;51.580;5.170;2022-11-15T03:02:04;11.20;99.90
47382;DHT22;33128;51.580;5.170;2022-11-15T03:04:52;11.20;99.90
47382;DHT22;33128;51.580;5.170;2022-11-15T03:07:54;11.30;99.90
47382;DHT22;33128;51.580;5.170;2022-11-15T03:11:21;11.30;99.90
47382;DHT22;33128;51.580;5.170;2022-11-15T03:13:36;11.30;99.90
47382;DHT22;33128;51.580;5.170;2022-11-15T03:18:59;11.10;99.90
47382;DHT22;33128;51.580;5.170;2022-11-15T03:21:29;11.10;99.90
47382;DHT22;33128;51.580;5.170;2022-11-15T03:23:58;11.00;99.90
47382;DHT22;33128;51.580;5.170;2022-11-15T03:26:28;11.00;99.90
47382;DHT22;33128;51.580;5.170;2022-11-15T03:29:23;10.90;99.90
47382;DHT22;33128;51.580;5.170;2022-11-15T03:31:58;11.00;99.90
47382;DHT22;33128;51.580;5.170;2022-11-15T03:34:40;11.10;99.90
47382;DHT22;33128;51.580;5.170;2022-11-15T03:37:07;11.10;99.90
47382;DHT22;33128;51.580;5.170;2022-11-15T03:39:33;11.00;99.90
47382;DHT22;33128;51.580;5.170;2022-11-15T03:44:57;11.00;99.90
47382;DHT22;33128;51.580;5.170;2022-11-15T03:47:38;11.00;99.90
47382;DHT22;33128;51.580;5.170;2022-11-15T03:50:11;11.00;99.90
47382;DHT22;33128;51.580;5.170;2022-11-15T03:52:39;10.90;99.90
47382;DHT22;33128;51.580;5.170;2022-11-15T03:55:11;10.90;99.90
47382;DHT22;33128;51.580;5.170;2022-11-15T03:57:37;10.80;99.90
47382;DHT22;33128;51.580;5.170;2022-11-15T04:00:04;10.80;99.90
47382;DHT22;33128;51.580;5.170;2022-11-15T04:02:30;10.80;99.90
47382;DHT22;33128;51.580;5.170;2022-11-15T04:04:55;10.80;99.90
47382;DHT22;33128;51.580;5.170;2022-11-15T04:07:21;10.80;99.90
47382;DHT22;33128;51.580;5.170;2022-11-15T04:09:49;10.90;99.90
47382;DHT22;33128;51.580;5.170;2022-11-15T04:12:38;10.90;99.90
47382;DHT22;33128;51.580;5.170;2022-11-15T04:15:12;10.90;99.90
47382;DHT22;33128;51.580;5.170;2022-11-15T04:17:47;10.90;99.90
47382;DHT22;33128;51.580;5.170;2022-11-15T04:20:24;10.90;99.90
47382;DHT22;33128;51.580;5.170;2022-11-15T04:23:16;10.90;99.90
47382;DHT22;33128;51.580;5.170;2022-11-15T04:26:12;10.90;99.90
47382;DHT22;33128;51.580;5.170;2022-11-15T04:28:42;10.90;99.90
47382;DHT22;33128;51.580;5.170;2022-11-15T04:31:27;10.90;99.90
47382;DHT22;33128;51.580;5.170;2022-11-15T04:33:53;11.00;99.90
47382;DHT22;33128;51.580;5.170;2022-11-15T04:36:19;10.90;99.90
47382;DHT22;33128;51.580;5.170;2022-11-15T04:39:05;10.90;99.90
47382;DHT22;33128;51.580;5.170;2022-11-15T04:41:34;11.00;99.90
47382;DHT22;33128;51.580;5.170;2022-11-15T04:43:59;11.00;99.90
47382;DHT22;33128;51.580;5.170;2022-11-15T04:46:25;11.00;99.90
47382;DHT22;33128;51.580;5.170;2022-11-15T04:48:52;11.10;99.90
47382;DHT22;33128;51.580;5.170;2022-11-15T04:51:18;11.10;99.90
47382;DHT22;33128;51.580;5.170;2022-11-15T04:53:44;11.00;99.90
47382;DHT22;33128;51.580;5.170;2022-11-15T04:56:30;11.20;99.90
47382;DHT22;33128;51.580;5.170;2022-11-15T04:58:55;12.10;99.90
47382;DHT22;33128;51.580;5.170;2022-11-15T05:01:21;12.50;99.90
47382;DHT22;33128;51.580;5.170;2022-11-15T05:03:46;12.60;99.90
47382;DHT22;33128;51.580;5.170;2022-11-15T05:06:31;12.70;99.90
47382;DHT22;33128;51.580;5.170;2022-11-15T05:08:57;12.80;99.90
47382;DHT22;33128;51.580;5.170;2022-11-15T05:11:23;12.80;99.90
47382;DHT22;33128;51.580;5.170;2022-11-15T05:13:51;12.90;99.90
47382;DHT22;33128;51.580;5.170;2022-11-15T05:16:17;12.80;99.90
47382;DHT22;33128;51.580;5.170;2022-11-15T05:18:42;12.90;99.90
47382;DHT22;33128;51.580;5.170;2022-11-15T05:21:10;12.80;99.90
47382;DHT22;33128;51.580;5.170;2022-11-15T05:23:36;12.80;99.90
47382;DHT22;33128;51.580;5.170;2022-11-15T05:26:07;12.80;99.90
47382;DHT22;33128;51.580;5.170;2022-11-15T05:28:33;12.90;99.90
47382;DHT22;33128;51.580;5.170;2022-11-15T05:31:25;12.90;99.90
47382;DHT22;33128;51.580;5.170;2022-11-15T05:33:52;12.90;99.90
47382;DHT22;33128;51.580;5.170;2022-11-15T05:36:20;12.90;99.90
47382;DHT22;33128;51.580;5.170;2022-11-15T05:38:50;12.90;99.90
47382;DHT22;33128;51.580;5.170;2022-11-15T05:41:17;12.90;99.90
47382;DHT22;33128;51.580;5.170;2022-11-15T05:43:44;12.90;99.90
47382;DHT22;33128;51.580;5.170;2022-11-15T05:46:11;12.90;99.90
47382;DHT22;33128;51.580;5.170;2022-11-15T05:48:43;12.90;99.90
47382;DHT22;33128;51.580;5.170;2022-11-15T05:51:12;12.90;99.90
47382;DHT22;33128;51.580;5.170;2022-11-15T05:53:42;12.90;99.90
47382;DHT22;33128;51.580;5.170;2022-11-15T05:56:17;12.90;99.90
47382;DHT22;33128;51.580;5.170;2022-11-15T05:58:43;12.90;99.90
47382;DHT22;33128;51.580;5.170;2022-11-15T06:01:18;13.00;99.90
47382;DHT22;33128;51.580;5.170;2022-11-15T06:03:43;13.00;99.90
47382;DHT22;33128;51.580;5.170;2022-11-15T06:06:22;12.90;99.90
47382;DHT22;33128;51.580;5.170;2022-11-15T06:08:51;13.00;99.90
47382;DHT22;33128;51.580;5.170;2022-11-15T06:11:16;12.90;99.90
47382;DHT22;33128;51.580;5.170;2022-11-15T06:13:42;13.00;99.90
47382;DHT22;33128;51.580;5.170;2022-11-15T06:16:08;12.90;99.90
47382;DHT22;33128;51.580;5.170;2022-11-15T06:18:34;13.00;99.90
47382;DHT22;33128;51.580;5.170;2022-11-15T06:21:03;13.00;99.90
47382;DHT22;33128;51.580;5.170;2022-11-15T06:23:33;13.00;99.90
47382;DHT22;33128;51.580;5.170;2022-11-15T06:26:04;13.00;99.90
47382;DHT22;33128;51.580;5.170;2022-11-15T06:28:31;13.00;99.90
47382;DHT22;33128;51.580;5.170;2022-11-15T06:31:05;13.00;99.90
47382;DHT22;33128;51.580;5.170;2022-11-15T06:33:30;12.90;99.90
47382;DHT22;33128;51.580;5.170;2022-11-15T06:36:03;13.00;99.90
47382;DHT22;33128;51.580;5.170;2022-11-15T06:38:29;12.90;99.90
47382;DHT22;33128;51.580;5.170;2022-11-15T06:40:55;13.00;99.90
47382;DHT22;33128;51.580;5.170;2022-11-15T06:43:26;13.00;99.90
47382;DHT22;33128;51.580;5.170;2022-11-15T06:45:51;12.90;99.90
47382;DHT22;33128;51.580;5.170;2022-11-15T06:48:20;12.90;99.90
47382;DHT22;33128;51.580;5.170;2022-11-15T06:50:56;12.90;99.90
47382;DHT22;33128;51.580;5.170;2022-11-15T06:53:23;12.90;99.90
47382;DHT22;33128;51.580;5.170;2022-11-15T06:55:49;12.90;99.90
47382;DHT22;33128;51.580;5.170;2022-11-15T06:58:15;12.90;99.90
47382;DHT22;33128;51.580;5.170;2022-11-15T07:00:41;12.90;99.90
47382;DHT22;33128;51.580;5.170;2022-11-15T07:03:07;12.90;99.90
47382;DHT22;33128;51.580;5.170;2022-11-15T07:05:33;12.90;99.90
47382;DHT22;33128;51.580;5.170;2022-11-15T07:07:58;12.90;99.90
47382;DHT22;33128;51.580;5.170;2022-11-15T07:10:25;12.90;99.90
47382;DHT22;33128;51.580;5.170;2022-11-15T07:12:52;12.90;99.90
47382;DHT22;33128;51.580;5.170;2022-11-15T07:15:18;13.00;99.90
47382;DHT22;33128;51.580;5.170;2022-11-15T07:17:45;13.20;99.90
47382;DHT22;33128;51.580;5.170;2022-11-15T07:20:12;13.10;99.90
47382;DHT22;33128;51.580;5.170;2022-11-15T07:22:39;13.00;99.90
47382;DHT22;33128;51.580;5.170;2022-11-15T07:25:20;13.00;99.90
47382;DHT22;33128;51.580;5.170;2022-11-15T07:27:54;13.10;99.90
47382;DHT22;33128;51.580;5.170;2022-11-15T07:30:20;13.20;99.90
47382;DHT22;33128;51.580;5.170;2022-11-15T07:32:45;13.30;99.90
47382;DHT22;33128;51.580;5.170;2022-11-15T07:35:11;13.10;99.90
47382;DHT22;33128;51.580;5.170;2022-11-15T07:37:37;13.10;99.90
47382;DHT22;33128;51.580;5.170;2022-11-15T07:40:03;13.00;99.90
47382;DHT22;33128;51.580;5.170;2022-11-15T07:42:31;13.00;99.90
47382;DHT22;33128;51.580;5.170;2022-11-15T07:45:15;13.00;99.90
47382;DHT22;33128;51.580;5.170;2022-11-15T07:47:47;12.90;99.90
47382;DHT22;33128;51.580;5.170;2022-11-15T07:50:19;12.90;99.90
47382;DHT22;33128;51.580;5.170;2022-11-15T07:52:45;12.90;99.90
47382;DHT22;33128;51.580;5.170;2022-11-15T07:55:11;12.90;99.90
47382;DHT22;33128;51.580;5.170;2022-11-15T07:57:37;12.90;99.90
47382;DHT22;33128;51.580;5.170;2022-11-15T08:00:04;12.90;99.90
47382;DHT22;33128;51.580;5.170;2022-11-15T08:02:30;12.90;99.90
47382;DHT22;33128;51.580;5.170;2022-11-15T08:04:59;12.90;99.90
47382;DHT22;33128;51.580;5.170;2022-11-15T08:07:24;12.90;99.90
47382;DHT22;33128;51.580;5.170;2022-11-15T08:09:50;12.90;99.90
47382;DHT22;33128;51.580;5.170;2022-11-15T08:12:15;12.90;99.90
47382;DHT22;33128;51.580;5.170;2022-11-15T08:14:41;12.90;99.90
47382;DHT22;33128;51.580;5.170;2022-11-15T08:17:06;12.80;99.90
47382;DHT22;33128;51.580;5.170;2022-11-15T08:19:32;12.90;99.90
47382;DHT22;33128;51.580;5.170;2022-11-15T08:22:00;12.90;99.90
47382;DHT22;33128;51.580;5.170;2022-11-15T08:24:26;12.90;99.90
47382;DHT22;33128;51.580;5.170;2022-11-15T08:26:51;12.90;99.90
47382;DHT22;33128;51.580;5.170;2022-11-15T08:29:17;12.90;99.90
47382;DHT22;33128;51.580;5.170;2022-11-15T08:31:45;12.90;99.90
47382;DHT22;33128;51.580;5.170;2022-11-15T08:34:11;12.90;99.90
47382;DHT22;33128;51.580;5.170;2022-11-15T08:36:36;12.90;99.90
47382;DHT22;33128;51.580;5.170;2022-11-15T08:39:02;12.90;99.90
47382;DHT22;33128;51.580;5.170;2022-11-15T08:41:33;12.90;99.90
47382;DHT22;33128;51.580;5.170;2022-11-15T08:44:01;12.90;99.90
47382;DHT22;33128;51.580;5.170;2022-11-15T08:46:26;12.90;99.90
47382;DHT22;33128;51.580;5.170;2022-11-15T08:48:52;13.00;99.90
47382;DHT22;33128;51.580;5.170;2022-11-15T08:51:17;12.90;99.90
47382;DHT22;33128;51.580;5.170;2022-11-15T08:53:43;13.00;99.90
47382;DHT22;33128;51.580;5.170;2022-11-15T08:56:10;12.90;99.90
47382;DHT22;33128;51.580;5.170;2022-11-15T08:58:37;13.00;99.90
47382;DHT22;33128;51.580;5.170;2022-11-15T09:01:03;13.00;99.90
47382;DHT22;33128;51.580;5.170;2022-11-15T09:03:29;13.00;99.90
47382;DHT22;33128;51.580;5.170;2022-11-15T09:05:58;13.00;99.90
47382;DHT22;33128;51.580;5.170;2022-11-15T09:08:26;13.10;99.90
47382;DHT22;33128;51.580;5.170;2022-11-15T09:10:54;13.10;99.90
47382;DHT22;33128;51.580;5.170;2022-11-15T09:13:19;13.00;99.90
47382;DHT22;33128;51.580;5.170;2022-11-15T09:15:45;13.00;99.90
47382;DHT22;33128;51.580;5.170;2022-11-15T09:18:10;13.00;99.90
47382;DHT22;33128;51.580;5.170;2022-11-15T09:20:39;13.00;99.90
47382;DHT22;33128;51.580;5.170;2022-11-15T09:23:05;13.00;99.90
47382;DHT22;33128;51.580;5.170;2022-11-15T09:25:31;13.00;99.90
47382;DHT22;33128;51.580;5.170;2022-11-15T09:27:57;13.10;99.90
47382;DHT22;33128;51.580;5.170;2022-11-15T09:30:24;13.10;99.90
47382;DHT22;33128;51.580;5.170;2022-11-15T09:32:50;13.10;99.90
47382;DHT22;33128;51.580;5.170;2022-11-15T09:35:16;13.00;99.90
47382;DHT22;33128;51.580;5.170;2022-11-15T09:37:42;13.10;99.90
47382;DHT22;33128;51.580;5.170;2022-11-15T09:40:13;13.10;99.90
47382;DHT22;33128;51.580;5.170;2022-11-15T09:48:27;13.10;99.90
47382;DHT22;33128;51.580;5.170;2022-11-15T09:50:54;13.10;99.90
47382;DHT22;33128;51.580;5.170;2022-11-15T09:53:32;13.10;99.90
47382;DHT22;33128;51.580;5.170;2022-11-15T09:56:03;13.10;99.90
47382;DHT22;33128;51.580;5.170;2022-11-15T09:58:34;13.20;99.90
47382;DHT22;33128;51.580;5.170;2022-11-15T10:01:06;13.20;99.90
47382;DHT22;33128;51.580;5.170;2022-11-15T10:03:38;13.40;99.90
47382;DHT22;33128;51.580;5.170;2022-11-15T10:06:13;13.40;99.90
47382;DHT22;33128;51.580;5.170;2022-11-15T10:11:26;13.50;99.90
47382;DHT22;33128;51.580;5.170;2022-11-15T10:13:56;13.60;99.90
47382;DHT22;33128;51.580;5.170;2022-11-15T10:16:44;13.70;99.90
47382;DHT22;33128;51.580;5.170;2022-11-15T10:19:50;13.80;99.90
47382;DHT22;33128;51.580;5.170;2022-11-15T10:25:10;13.90;99.90
47382;DHT22;33128;51.580;5.170;2022-11-15T10:27:40;14.00;99.90
47382;DHT22;33128;51.580;5.170;2022-11-15T10:30:15;14.00;99.90
47382;DHT22;33128;51.580;5.170;2022-11-15T10:32:42;14.00;99.90
47382;DHT22;33128;51.580;5.170;2022-11-15T10:35:26;14.20;99.90
47382;DHT22;33128;51.580;5.170;2022-11-15T10:38:11;14.30;99.90
47382;DHT22;33128;51.580;5.170;2022-11-15T10:40:38;14.30;99.90
47382;DHT22;33128;51.580;5.170;2022-11-15T10:45:35;14.90;99.90
47382;DHT22;33128;51.580;5.170;2022-11-15T10:48:29;15.50;99.90
47382;DHT22;33128;51.580;5.170;2022-11-15T10:50:55;16.00;99.90
47382;DHT22;33128;51.580;5.170;2022-11-15T10:53:23;16.30;99.90
47382;DHT22;33128;51.580;5.170;2022-11-15T10:55:53;16.80;99.90
47382;DHT22;33128;51.580;5.170;2022-11-15T10:58:32;17.50;99.90
47382;DHT22;33128;51.580;5.170;2022-11-15T11:01:15;17.90;99.90
47382;DHT22;33128;51.580;5.170;2022-11-15T11:03:42;18.40;99.90
47382;DHT22;33128;51.580;5.170;2022-11-15T11:06:26;18.60;99.90
47382;DHT22;33128;51.580;5.170;2022-11-15T11:08:59;18.50;99.90
47382;DHT22;33128;51.580;5.170;2022-11-15T11:11:39;17.70;99.90
47382;DHT22;33128;51.580;5.170;2022-11-15T11:14:12;17.40;99.90
47382;DHT22;33128;51.580;5.170;2022-11-15T11:16:45;17.40;99.90
47382;DHT22;33128;51.580;5.170;2022-11-15T11:31:04;17.40;99.90
47382;DHT22;33128;51.580;5.170;2022-11-15T11:46:49;18.30;99.90
47382;DHT22;33128;51.580;5.170;2022-11-15T11:49:44;17.00;99.90
47382;DHT22;33128;51.580;5.170;2022-11-15T12:00:18;16.70;99.90
